createdAt,value
2023-09-16T00:00:22.382Z,0.00
2023-09-16T00:01:22.544Z,0.00
2023-09-16T00:02:22.398Z,0.00
2023-09-16T00:03:22.457Z,0.00
2023-09-16T00:04:22.443Z,0.00
2023-09-16T00:05:22.313Z,0.00
2023-09-16T00:06:22.311Z,0.00
2023-09-16T00:07:22.291Z,0.00
2023-09-16T00:08:22.303Z,0.00
2023-09-16T00:09:22.292Z,0.00
2023-09-16T00:10:22.275Z,0.00
2023-09-16T00:11:22.228Z,0.00
2023-09-16T00:12:22.255Z,0.00
2023-09-16T00:13:22.202Z,0.00
2023-09-16T00:14:25.221Z,0.00
2023-09-16T00:15:25.256Z,0.00
2023-09-16T00:16:22.173Z,0.00
2023-09-16T00:17:22.179Z,0.00
2023-09-16T00:18:22.197Z,0.00
2023-09-16T00:19:22.133Z,0.00
2023-09-16T00:20:22.107Z,0.00
2023-09-16T00:21:22.090Z,0.00
2023-09-16T00:22:22.082Z,0.00
2023-09-16T00:23:22.075Z,0.00
2023-09-16T00:24:22.083Z,0.00
2023-09-16T00:25:22.034Z,0.00
2023-09-16T00:26:22.028Z,0.00
2023-09-16T00:27:22.051Z,0.00
2023-09-16T00:28:21.998Z,0.00
2023-09-16T00:29:22.002Z,0.00
2023-09-16T00:30:21.993Z,0.00
2023-09-16T00:31:22.040Z,0.00
2023-09-16T00:32:21.956Z,0.00
2023-09-16T00:33:21.921Z,0.00
2023-09-16T00:34:24.949Z,0.00
2023-09-16T00:35:24.953Z,0.00
2023-09-16T00:36:21.940Z,0.00
2023-09-16T00:37:21.867Z,0.00
2023-09-16T00:38:21.887Z,0.00
2023-09-16T00:39:21.848Z,0.00
2023-09-16T00:40:21.861Z,0.00
2023-09-16T00:41:21.843Z,0.00
2023-09-16T00:42:21.805Z,0.00
2023-09-16T00:43:21.830Z,0.00
2023-09-16T00:44:21.779Z,0.00
2023-09-16T00:45:21.794Z,0.00
2023-09-16T00:46:21.769Z,0.00
2023-09-16T00:47:21.748Z,0.00
2023-09-16T00:48:21.736Z,0.00
2023-09-16T00:49:21.735Z,0.00
2023-09-16T00:50:21.727Z,0.00
2023-09-16T00:51:21.690Z,0.00
2023-09-16T00:52:21.685Z,0.00
2023-09-16T00:53:21.662Z,0.00
2023-09-16T00:54:24.653Z,0.00
2023-09-16T00:55:24.665Z,0.00
2023-09-16T00:56:21.652Z,0.00
2023-09-16T00:57:21.593Z,0.00
2023-09-16T00:58:21.594Z,0.00
2023-09-16T00:59:21.581Z,0.00
2023-09-16T01:00:21.566Z,0.00
2023-09-16T01:01:21.690Z,0.00
2023-09-16T01:02:21.607Z,0.00
2023-09-16T01:03:21.547Z,0.00
2023-09-16T01:04:21.515Z,0.00
2023-09-16T01:05:21.583Z,0.00
2023-09-16T01:06:21.497Z,0.00
2023-09-16T01:07:21.495Z,0.00
2023-09-16T01:08:21.465Z,0.00
2023-09-16T01:09:21.436Z,0.00
2023-09-16T01:10:21.503Z,0.00
2023-09-16T01:11:21.417Z,0.00
2023-09-16T01:12:21.446Z,0.00
2023-09-16T01:13:21.433Z,0.00
2023-09-16T01:14:24.373Z,0.00
2023-09-16T01:15:24.363Z,0.00
2023-09-16T01:16:21.373Z,0.00
2023-09-16T01:17:21.343Z,0.00
2023-09-16T01:18:21.317Z,0.00
2023-09-16T01:19:21.340Z,0.00
2023-09-16T01:20:21.305Z,0.00
2023-09-16T01:21:21.312Z,0.00
2023-09-16T01:22:21.299Z,0.00
2023-09-16T01:23:21.296Z,0.00
2023-09-16T01:24:21.255Z,0.00
2023-09-16T01:25:21.219Z,0.00
2023-09-16T01:26:21.223Z,0.00
2023-09-16T01:27:21.202Z,0.00
2023-09-16T01:28:21.186Z,0.00
2023-09-16T01:29:21.192Z,0.00
2023-09-16T01:30:21.178Z,0.00
2023-09-16T01:31:21.143Z,0.00
2023-09-16T01:32:21.132Z,0.00
2023-09-16T01:33:21.228Z,0.00
2023-09-16T01:34:24.352Z,0.00
2023-09-16T01:35:24.092Z,0.00
2023-09-16T01:36:21.064Z,0.00
2023-09-16T01:37:21.060Z,0.00
2023-09-16T01:38:21.066Z,0.00
2023-09-16T01:39:21.027Z,0.00
2023-09-16T01:40:21.059Z,0.00
2023-09-16T01:41:21.037Z,0.00
2023-09-16T01:42:21.641Z,0.00
2023-09-16T01:43:20.981Z,0.00
2023-09-16T01:44:20.969Z,0.00
2023-09-16T01:45:20.986Z,0.00
2023-09-16T01:46:20.977Z,0.00
2023-09-16T01:47:20.965Z,0.00
2023-09-16T01:48:25.038Z,0.00
2023-09-16T01:49:21.939Z,0.00
2023-09-16T01:50:20.926Z,0.00
2023-09-16T01:51:20.901Z,0.00
2023-09-16T01:52:20.853Z,0.00
2023-09-16T01:53:20.841Z,0.00
2023-09-16T01:54:23.829Z,0.00
2023-09-16T01:55:23.840Z,0.00
2023-09-16T01:56:20.833Z,0.00
2023-09-16T01:57:20.782Z,0.00
2023-09-16T01:58:20.776Z,0.00
2023-09-16T01:59:20.761Z,0.00
2023-09-16T02:00:20.813Z,0.00
2023-09-16T02:01:20.767Z,0.00
2023-09-16T02:02:20.722Z,0.00
2023-09-16T02:03:20.714Z,0.00
2023-09-16T02:04:20.718Z,0.00
2023-09-16T02:05:20.696Z,0.00
2023-09-16T02:06:20.690Z,0.00
2023-09-16T02:07:20.654Z,0.00
2023-09-16T02:08:20.631Z,0.00
2023-09-16T02:09:20.612Z,0.00
2023-09-16T02:10:20.638Z,0.00
2023-09-16T02:11:20.622Z,0.00
2023-09-16T02:12:20.586Z,0.00
2023-09-16T02:13:20.578Z,0.00
2023-09-16T02:14:23.588Z,0.00
2023-09-16T02:15:23.589Z,0.00
2023-09-16T02:16:20.586Z,0.00
2023-09-16T02:17:20.583Z,0.00
2023-09-16T02:18:20.522Z,0.00
2023-09-16T02:19:20.492Z,0.00
2023-09-16T02:20:20.473Z,0.00
2023-09-16T02:21:20.519Z,0.00
2023-09-16T02:22:20.471Z,0.00
2023-09-16T02:23:20.437Z,0.00
2023-09-16T02:24:20.439Z,0.00
2023-09-16T02:25:20.405Z,0.00
2023-09-16T02:26:20.428Z,0.00
2023-09-16T02:27:20.404Z,0.00
2023-09-16T02:28:20.364Z,0.00
2023-09-16T02:29:20.363Z,0.00
2023-09-16T02:30:20.357Z,0.00
2023-09-16T02:31:20.441Z,0.00
2023-09-16T02:32:20.316Z,0.00
2023-09-16T02:33:20.329Z,0.00
2023-09-16T02:34:23.275Z,0.00
2023-09-16T02:35:23.286Z,0.00
2023-09-16T02:36:20.261Z,0.00
2023-09-16T02:37:20.268Z,0.00
2023-09-16T02:38:20.256Z,0.00
2023-09-16T02:39:20.224Z,0.00
2023-09-16T02:40:20.200Z,0.00
2023-09-16T02:41:20.190Z,0.00
2023-09-16T02:42:20.202Z,0.00
2023-09-16T02:43:20.204Z,0.00
2023-09-16T02:44:20.164Z,0.00
2023-09-16T02:45:20.150Z,0.00
2023-09-16T02:46:20.241Z,0.00
2023-09-16T02:47:20.100Z,0.00
2023-09-16T02:48:20.124Z,0.00
2023-09-16T02:49:20.083Z,0.00
2023-09-16T02:50:20.072Z,0.00
2023-09-16T02:51:20.121Z,0.00
2023-09-16T02:52:20.039Z,0.00
2023-09-16T02:53:20.055Z,0.00
2023-09-16T02:54:23.016Z,0.00
2023-09-16T02:55:23.000Z,0.00
2023-09-16T02:56:19.986Z,0.00
2023-09-16T02:57:19.991Z,0.00
2023-09-16T02:58:19.995Z,0.00
2023-09-16T02:59:19.981Z,0.00
2023-09-16T03:00:19.949Z,0.00
2023-09-16T03:01:20.015Z,0.00
2023-09-16T03:02:19.935Z,0.00
2023-09-16T03:03:20.022Z,0.00
2023-09-16T03:04:19.923Z,0.00
2023-09-16T03:05:19.900Z,0.00
2023-09-16T03:06:19.850Z,0.00
2023-09-16T03:07:19.834Z,0.00
2023-09-16T03:08:19.832Z,0.00
2023-09-16T03:09:19.890Z,0.00
2023-09-16T03:10:19.805Z,0.00
2023-09-16T03:11:19.781Z,0.00
2023-09-16T03:12:19.766Z,0.00
2023-09-16T03:13:19.753Z,0.00
2023-09-16T03:14:22.815Z,0.00
2023-09-16T03:15:22.768Z,0.00
2023-09-16T03:16:19.874Z,0.00
2023-09-16T03:17:19.741Z,0.00
2023-09-16T03:18:19.710Z,0.00
2023-09-16T03:19:19.727Z,0.00
2023-09-16T03:20:19.682Z,0.00
2023-09-16T03:21:19.672Z,0.00
2023-09-16T03:22:19.637Z,0.00
2023-09-16T03:23:19.624Z,0.00
2023-09-16T03:24:19.650Z,0.00
2023-09-16T03:25:19.608Z,0.00
2023-09-16T03:26:19.573Z,0.00
2023-09-16T03:27:19.616Z,0.00
2023-09-16T03:28:19.554Z,0.00
2023-09-16T03:29:19.543Z,0.00
2023-09-16T03:30:19.565Z,0.00
2023-09-16T03:31:19.537Z,0.00
2023-09-16T03:32:19.497Z,0.00
2023-09-16T03:33:19.473Z,0.00
2023-09-16T03:34:22.478Z,0.00
2023-09-16T03:35:22.497Z,0.00
2023-09-16T03:36:19.432Z,0.00
2023-09-16T03:37:19.441Z,0.00
2023-09-16T03:38:19.425Z,0.00
2023-09-16T03:39:19.407Z,0.00
2023-09-16T03:40:19.444Z,0.00
2023-09-16T03:41:19.430Z,0.00
2023-09-16T03:42:19.387Z,0.00
2023-09-16T03:43:19.355Z,0.00
2023-09-16T03:44:19.354Z,0.00
2023-09-16T03:45:29.160Z,0.00
2023-09-16T03:46:20.317Z,0.00
2023-09-16T03:47:19.310Z,0.00
2023-09-16T03:48:19.268Z,0.00
2023-09-16T03:49:19.409Z,0.00
2023-09-16T03:50:19.248Z,0.00
2023-09-16T03:51:19.229Z,0.00
2023-09-16T03:52:19.273Z,0.00
2023-09-16T03:53:25.877Z,0.00
2023-09-16T03:54:23.208Z,0.00
2023-09-16T03:55:22.213Z,0.00
2023-09-16T03:56:19.159Z,0.00
2023-09-16T03:57:19.198Z,0.00
2023-09-16T03:58:19.136Z,0.00
2023-09-16T03:59:19.119Z,0.00
2023-09-16T04:00:19.100Z,0.00
2023-09-16T04:01:19.154Z,0.00
2023-09-16T04:02:19.079Z,0.00
2023-09-16T04:03:19.143Z,0.00
2023-09-16T04:04:19.118Z,0.00
2023-09-16T04:05:19.049Z,0.00
2023-09-16T04:06:19.136Z,0.00
2023-09-16T04:07:20.590Z,0.00
2023-09-16T04:08:19.025Z,0.00
2023-09-16T04:09:19.065Z,0.00
2023-09-16T04:10:18.978Z,0.00
2023-09-16T04:11:18.963Z,0.00
2023-09-16T04:12:18.997Z,0.00
2023-09-16T04:13:18.937Z,0.00
2023-09-16T04:14:21.926Z,0.00
2023-09-16T04:15:21.982Z,0.00
2023-09-16T04:16:18.943Z,0.00
2023-09-16T04:17:18.888Z,0.00
2023-09-16T04:18:18.895Z,0.00
2023-09-16T04:19:18.877Z,0.00
2023-09-16T04:20:18.845Z,0.00
2023-09-16T04:21:18.837Z,0.00
2023-09-16T04:22:18.816Z,0.00
2023-09-16T04:23:18.830Z,0.00
2023-09-16T04:24:18.791Z,0.00
2023-09-16T04:25:18.769Z,0.00
2023-09-16T04:26:18.763Z,0.00
2023-09-16T04:27:18.776Z,0.00
2023-09-16T04:28:18.761Z,0.00
2023-09-16T04:29:18.752Z,0.00
2023-09-16T04:30:18.732Z,0.00
2023-09-16T04:31:18.746Z,0.00
2023-09-16T04:32:18.677Z,0.00
2023-09-16T04:33:18.693Z,0.00
2023-09-16T04:34:21.710Z,0.00
2023-09-16T04:35:21.676Z,0.00
2023-09-16T04:36:18.628Z,0.00
2023-09-16T04:37:18.612Z,0.00
2023-09-16T04:38:18.597Z,0.00
2023-09-16T04:39:18.646Z,0.00
2023-09-16T04:40:18.566Z,0.00
2023-09-16T04:41:18.565Z,0.00
2023-09-16T04:42:18.550Z,0.00
2023-09-16T04:43:18.559Z,0.00
2023-09-16T04:44:18.576Z,0.00
2023-09-16T04:45:18.524Z,0.00
2023-09-16T04:46:18.517Z,0.00
2023-09-16T04:47:20.503Z,0.00
2023-09-16T04:48:18.482Z,0.00
2023-09-16T04:49:18.483Z,0.00
2023-09-16T04:50:18.478Z,0.00
2023-09-16T04:51:18.421Z,5.62
2023-09-16T04:52:18.456Z,5.62
2023-09-16T04:53:18.407Z,5.62
2023-09-16T04:54:21.403Z,5.62
2023-09-16T04:55:21.414Z,5.62
2023-09-16T04:56:18.349Z,5.62
2023-09-16T04:57:18.335Z,5.62
2023-09-16T04:58:18.385Z,5.62
2023-09-16T04:59:18.324Z,5.62
2023-09-16T05:00:18.322Z,5.62
2023-09-16T05:01:18.413Z,11.25
2023-09-16T05:02:18.270Z,11.25
2023-09-16T05:03:18.338Z,11.25
2023-09-16T05:04:18.267Z,11.25
2023-09-16T05:05:18.258Z,11.25
2023-09-16T05:06:18.220Z,16.88
2023-09-16T05:07:18.234Z,16.88
2023-09-16T05:08:18.186Z,16.88
2023-09-16T05:09:18.186Z,16.88
2023-09-16T05:10:18.164Z,16.88
2023-09-16T05:11:18.151Z,22.50
2023-09-16T05:12:18.189Z,22.50
2023-09-16T05:13:18.168Z,22.50
2023-09-16T05:14:21.121Z,22.50
2023-09-16T05:15:21.095Z,28.12
2023-09-16T05:16:18.196Z,28.12
2023-09-16T05:17:18.095Z,28.12
2023-09-16T05:18:18.056Z,28.12
2023-09-16T05:19:18.117Z,33.75
2023-09-16T05:20:18.041Z,33.75
2023-09-16T05:21:18.020Z,39.38
2023-09-16T05:22:18.034Z,39.38
2023-09-16T05:23:17.992Z,45.00
2023-09-16T05:24:17.988Z,56.25
2023-09-16T05:25:18.069Z,67.50
2023-09-16T05:26:17.957Z,78.75
2023-09-16T05:27:17.955Z,84.38
2023-09-16T05:28:17.928Z,84.38
2023-09-16T05:29:17.917Z,90.00
2023-09-16T05:30:17.913Z,90.00
2023-09-16T05:31:17.936Z,95.62
2023-09-16T05:32:17.908Z,84.38
2023-09-16T05:33:17.853Z,84.38
2023-09-16T05:34:20.898Z,78.75
2023-09-16T05:35:20.846Z,61.88
2023-09-16T05:36:17.839Z,61.88
2023-09-16T05:37:17.789Z,61.88
2023-09-16T05:38:17.823Z,56.25
2023-09-16T05:39:17.800Z,56.25
2023-09-16T05:40:17.777Z,61.88
2023-09-16T05:41:17.789Z,67.50
2023-09-16T05:42:17.736Z,61.88
2023-09-16T05:43:17.786Z,61.88
2023-09-16T05:44:18.291Z,67.50
2023-09-16T05:45:17.690Z,67.50
2023-09-16T05:46:17.702Z,67.50
2023-09-16T05:47:17.778Z,73.12
2023-09-16T05:48:17.676Z,73.12
2023-09-16T05:49:17.668Z,73.12
2023-09-16T05:50:17.661Z,73.12
2023-09-16T05:51:17.615Z,73.12
2023-09-16T05:52:17.597Z,78.75
2023-09-16T05:53:17.583Z,78.75
2023-09-16T05:54:20.605Z,95.62
2023-09-16T05:55:20.551Z,95.62
2023-09-16T05:56:17.551Z,95.62
2023-09-16T05:57:17.572Z,95.62
2023-09-16T05:58:17.517Z,95.62
2023-09-16T05:59:17.560Z,95.62
2023-09-16T06:00:17.509Z,95.62
2023-09-16T06:01:17.553Z,95.62
2023-09-16T06:02:17.493Z,95.62
2023-09-16T06:03:17.451Z,95.62
2023-09-16T06:04:17.540Z,101.25
2023-09-16T06:05:17.465Z,101.25
2023-09-16T06:06:17.411Z,106.88
2023-09-16T06:07:17.446Z,112.50
2023-09-16T06:08:17.392Z,112.50
2023-09-16T06:09:17.387Z,112.50
2023-09-16T06:10:17.398Z,112.50
2023-09-16T06:11:17.345Z,112.50
2023-09-16T06:12:17.327Z,118.12
2023-09-16T06:13:17.315Z,112.50
2023-09-16T06:14:20.312Z,112.50
2023-09-16T06:15:20.319Z,106.88
2023-09-16T06:16:17.372Z,106.88
2023-09-16T06:17:17.260Z,106.88
2023-09-16T06:18:17.302Z,101.25
2023-09-16T06:19:17.331Z,95.62
2023-09-16T06:20:17.244Z,95.62
2023-09-16T06:21:17.234Z,90.00
2023-09-16T06:22:17.310Z,90.00
2023-09-16T06:23:17.176Z,84.38
2023-09-16T06:24:17.213Z,84.38
2023-09-16T06:25:17.235Z,84.38
2023-09-16T06:26:17.126Z,101.25
2023-09-16T06:27:17.161Z,106.88
2023-09-16T06:28:17.154Z,106.88
2023-09-16T06:29:17.103Z,101.25
2023-09-16T06:30:17.149Z,106.88
2023-09-16T06:31:17.151Z,90.00
2023-09-16T06:32:17.063Z,95.62
2023-09-16T06:33:17.037Z,90.00
2023-09-16T06:34:20.392Z,95.62
2023-09-16T06:35:20.075Z,95.62
2023-09-16T06:36:17.006Z,95.62
2023-09-16T06:37:17.003Z,95.62
2023-09-16T06:38:16.973Z,90.00
2023-09-16T06:39:16.985Z,90.00
2023-09-16T06:40:16.991Z,90.00
2023-09-16T06:41:16.967Z,90.00
2023-09-16T06:42:16.906Z,84.38
2023-09-16T06:43:16.929Z,84.38
2023-09-16T06:44:16.881Z,84.38
2023-09-16T06:45:16.884Z,90.00
2023-09-16T06:46:16.902Z,90.00
2023-09-16T06:47:16.869Z,95.62
2023-09-16T06:48:16.860Z,95.62
2023-09-16T06:49:16.851Z,95.62
2023-09-16T06:50:16.805Z,95.62
2023-09-16T06:51:16.796Z,90.00
2023-09-16T06:52:16.925Z,90.00
2023-09-16T06:53:16.776Z,90.00
2023-09-16T06:54:19.748Z,90.00
2023-09-16T06:55:19.760Z,90.00
2023-09-16T06:56:16.728Z,84.38
2023-09-16T06:57:16.709Z,84.38
2023-09-16T06:58:16.784Z,78.75
2023-09-16T06:59:16.729Z,78.75
2023-09-16T07:00:16.671Z,78.75
2023-09-16T07:01:16.817Z,73.12
2023-09-16T07:02:16.643Z,73.12
2023-09-16T07:03:16.727Z,73.12
2023-09-16T07:04:16.707Z,73.12
2023-09-16T07:05:16.593Z,73.12
2023-09-16T07:06:16.595Z,73.12
2023-09-16T07:07:16.650Z,73.12
2023-09-16T07:08:16.555Z,73.12
2023-09-16T07:09:16.560Z,73.12
2023-09-16T07:10:16.578Z,67.50
2023-09-16T07:11:16.517Z,67.50
2023-09-16T07:12:16.568Z,67.50
2023-09-16T07:13:16.513Z,67.50
2023-09-16T07:14:19.490Z,67.50
2023-09-16T07:15:19.540Z,67.50
2023-09-16T07:16:16.538Z,67.50
2023-09-16T07:17:16.436Z,67.50
2023-09-16T07:18:16.447Z,67.50
2023-09-16T07:19:16.468Z,67.50
2023-09-16T07:20:16.385Z,67.50
2023-09-16T07:21:16.391Z,67.50
2023-09-16T07:22:16.411Z,67.50
2023-09-16T07:23:16.350Z,67.50
2023-09-16T07:24:16.355Z,67.50
2023-09-16T07:25:16.384Z,67.50
2023-09-16T07:26:16.314Z,67.50
2023-09-16T07:27:16.294Z,67.50
2023-09-16T07:28:16.322Z,67.50
2023-09-16T07:29:16.286Z,67.50
2023-09-16T07:30:16.284Z,67.50
2023-09-16T07:31:16.390Z,73.12
2023-09-16T07:32:16.228Z,73.12
2023-09-16T07:33:16.208Z,73.12
2023-09-16T07:34:19.295Z,73.12
2023-09-16T07:35:19.239Z,73.12
2023-09-16T07:36:16.200Z,73.12
2023-09-16T07:37:16.213Z,73.12
2023-09-16T07:38:16.142Z,73.12
2023-09-16T07:39:16.134Z,73.12
2023-09-16T07:40:16.190Z,78.75
2023-09-16T07:41:16.115Z,78.75
2023-09-16T07:42:16.099Z,78.75
2023-09-16T07:43:16.093Z,84.38
2023-09-16T07:44:16.116Z,78.75
2023-09-16T07:45:16.098Z,78.75
2023-09-16T07:46:16.111Z,78.75
2023-09-16T07:47:16.023Z,78.75
2023-09-16T07:48:16.016Z,84.38
2023-09-16T07:49:15.998Z,84.38
2023-09-16T07:50:16.008Z,84.38
2023-09-16T07:51:15.999Z,84.38
2023-09-16T07:52:15.998Z,84.38
2023-09-16T07:53:15.935Z,90.00
2023-09-16T07:54:18.923Z,90.00
2023-09-16T07:55:18.990Z,90.00
2023-09-16T07:56:15.925Z,90.00
2023-09-16T07:57:15.886Z,90.00
2023-09-16T07:58:15.919Z,90.00
2023-09-16T07:59:15.857Z,90.00
2023-09-16T08:00:15.878Z,90.00
2023-09-16T08:01:15.894Z,84.38
2023-09-16T08:02:15.809Z,84.38
2023-09-16T08:03:15.889Z,78.75
2023-09-16T08:04:16.006Z,78.75
2023-09-16T08:05:15.784Z,73.12
2023-09-16T08:06:15.854Z,67.50
2023-09-16T08:07:15.764Z,67.50
2023-09-16T08:08:15.735Z,67.50
2023-09-16T08:09:15.750Z,67.50
2023-09-16T08:10:15.744Z,73.12
2023-09-16T08:11:15.732Z,78.75
2023-09-16T08:12:15.682Z,78.75
2023-09-16T08:13:15.692Z,78.75
2023-09-16T08:14:18.656Z,84.38
2023-09-16T08:15:18.633Z,90.00
2023-09-16T08:16:15.737Z,90.00
2023-09-16T08:17:15.604Z,90.00
2023-09-16T08:18:15.630Z,95.62
2023-09-16T08:19:16.570Z,95.62
2023-09-16T08:20:15.586Z,95.62
2023-09-16T08:21:15.595Z,101.25
2023-09-16T08:22:15.582Z,101.25
2023-09-16T08:23:15.525Z,101.25
2023-09-16T08:24:15.521Z,101.25
2023-09-16T08:25:15.523Z,106.88
2023-09-16T08:26:15.513Z,106.88
2023-09-16T08:27:15.474Z,112.50
2023-09-16T08:28:15.526Z,112.50
2023-09-16T08:29:15.485Z,112.50
2023-09-16T08:30:15.437Z,118.12
2023-09-16T08:31:15.529Z,118.12
2023-09-16T08:32:15.397Z,118.12
2023-09-16T08:33:15.414Z,118.12
2023-09-16T08:34:18.420Z,118.12
2023-09-16T08:35:18.364Z,123.75
2023-09-16T08:36:15.420Z,123.75
2023-09-16T08:37:15.389Z,123.75
2023-09-16T08:38:15.338Z,118.12
2023-09-16T08:39:15.311Z,118.12
2023-09-16T08:40:15.345Z,118.12
2023-09-16T08:41:15.336Z,123.75
2023-09-16T08:42:15.543Z,123.75
2023-09-16T08:43:15.289Z,123.75
2023-09-16T08:44:15.260Z,123.75
2023-09-16T08:45:15.265Z,123.75
2023-09-16T08:46:15.336Z,118.12
2023-09-16T08:47:15.281Z,118.12
2023-09-16T08:48:15.200Z,118.12
2023-09-16T08:49:15.241Z,123.75
2023-09-16T08:50:15.162Z,123.75
2023-09-16T08:51:15.166Z,123.75
2023-09-16T08:52:15.208Z,123.75
2023-09-16T08:53:15.168Z,123.75
2023-09-16T08:54:18.129Z,118.12
2023-09-16T08:55:18.116Z,118.12
2023-09-16T08:56:15.141Z,118.12
2023-09-16T08:57:15.080Z,118.12
2023-09-16T08:58:15.130Z,118.12
2023-09-16T08:59:15.113Z,118.12
2023-09-16T09:00:15.039Z,118.12
2023-09-16T09:01:15.101Z,118.12
2023-09-16T09:02:15.015Z,118.12
2023-09-16T09:03:15.039Z,118.12
2023-09-16T09:04:15.150Z,118.12
2023-09-16T09:05:14.981Z,118.12
2023-09-16T09:06:23.239Z,118.12
2023-09-16T09:07:15.989Z,118.12
2023-09-16T09:08:15.003Z,118.12
2023-09-16T09:09:14.921Z,123.75
2023-09-16T09:10:14.951Z,123.75
2023-09-16T09:11:14.899Z,123.75
2023-09-16T09:12:14.877Z,118.12
2023-09-16T09:13:14.952Z,118.12
2023-09-16T09:14:17.880Z,118.12
2023-09-16T09:15:17.935Z,118.12
2023-09-16T09:16:15.599Z,118.12
2023-09-16T09:17:14.921Z,118.12
2023-09-16T09:18:14.814Z,118.12
2023-09-16T09:19:14.870Z,118.12
2023-09-16T09:20:14.782Z,118.12
2023-09-16T09:21:14.779Z,118.12
2023-09-16T09:22:14.774Z,118.12
2023-09-16T09:23:14.751Z,118.12
2023-09-16T09:24:14.771Z,118.12
2023-09-16T09:25:14.708Z,118.12
2023-09-16T09:26:14.724Z,118.12
2023-09-16T09:27:14.678Z,118.12
2023-09-16T09:28:14.706Z,123.75
2023-09-16T09:29:14.651Z,123.75
2023-09-16T09:30:14.739Z,123.75
2023-09-16T09:31:14.726Z,129.38
2023-09-16T09:32:14.594Z,129.38
2023-09-16T09:33:14.640Z,129.38
2023-09-16T09:34:17.668Z,129.38
2023-09-16T09:35:17.598Z,129.38
2023-09-16T09:36:14.614Z,135.00
2023-09-16T09:37:14.564Z,135.00
2023-09-16T09:38:14.527Z,140.62
2023-09-16T09:39:14.541Z,140.62
2023-09-16T09:40:14.568Z,146.25
2023-09-16T09:41:14.519Z,146.25
2023-09-16T09:42:14.513Z,151.88
2023-09-16T09:43:14.504Z,151.88
2023-09-16T09:44:14.455Z,151.88
2023-09-16T09:45:14.434Z,151.88
2023-09-16T09:46:14.492Z,151.88
2023-09-16T09:47:14.492Z,157.50
2023-09-16T09:48:14.438Z,157.50
2023-09-16T09:49:14.473Z,157.50
2023-09-16T09:50:14.518Z,163.12
2023-09-16T09:51:14.441Z,163.12
2023-09-16T09:52:14.397Z,168.75
2023-09-16T09:53:14.310Z,168.75
2023-09-16T09:54:17.312Z,174.38
2023-09-16T09:55:17.304Z,174.38
2023-09-16T09:56:14.264Z,174.38
2023-09-16T09:57:14.353Z,174.38
2023-09-16T09:58:14.365Z,174.38
2023-09-16T09:59:14.215Z,174.38
2023-09-16T10:00:14.206Z,180.00
2023-09-16T10:01:14.270Z,174.38
2023-09-16T10:02:14.226Z,174.38
2023-09-16T10:03:14.259Z,174.38
2023-09-16T10:04:14.235Z,174.38
2023-09-16T10:05:14.140Z,174.38
2023-09-16T10:06:14.154Z,174.38
2023-09-16T10:07:14.122Z,174.38
2023-09-16T10:08:14.119Z,174.38
2023-09-16T10:09:14.188Z,174.38
2023-09-16T10:10:14.085Z,174.38
2023-09-16T10:11:14.057Z,174.38
2023-09-16T10:12:14.061Z,174.38
2023-09-16T10:13:14.114Z,180.00
2023-09-16T10:14:17.028Z,180.00
2023-09-16T10:15:17.002Z,180.00
2023-09-16T10:16:14.053Z,180.00
2023-09-16T10:17:14.277Z,185.62
2023-09-16T10:18:13.994Z,185.62
2023-09-16T10:19:14.982Z,185.62
2023-09-16T10:20:13.941Z,191.25
2023-09-16T10:21:13.937Z,191.25
2023-09-16T10:22:13.940Z,196.88
2023-09-16T10:23:13.998Z,196.88
2023-09-16T10:24:13.879Z,202.50
2023-09-16T10:25:13.954Z,202.50
2023-09-16T10:26:13.912Z,202.50
2023-09-16T10:27:13.837Z,208.12
2023-09-16T10:28:14.030Z,208.12
2023-09-16T10:29:13.817Z,208.12
2023-09-16T10:30:13.796Z,213.75
2023-09-16T10:31:13.833Z,213.75
2023-09-16T10:32:13.895Z,219.38
2023-09-16T10:33:13.794Z,225.00
2023-09-16T10:34:16.798Z,225.00
2023-09-16T10:35:16.743Z,225.00
2023-09-16T10:36:13.708Z,225.00
2023-09-16T10:37:13.726Z,230.62
2023-09-16T10:38:13.732Z,230.62
2023-09-16T10:39:13.702Z,230.62
2023-09-16T10:40:13.740Z,230.62
2023-09-16T10:41:13.685Z,230.62
2023-09-16T10:42:13.644Z,236.25
2023-09-16T10:43:13.674Z,241.88
2023-09-16T10:44:13.603Z,241.88
2023-09-16T10:45:13.648Z,247.50
2023-09-16T10:46:13.707Z,241.88
2023-09-16T10:47:13.611Z,241.88
2023-09-16T10:48:13.553Z,241.88
2023-09-16T10:49:13.645Z,247.50
2023-09-16T10:50:13.528Z,270.00
2023-09-16T10:51:13.542Z,270.00
2023-09-16T10:52:13.528Z,253.12
2023-09-16T10:53:13.504Z,270.00
2023-09-16T10:54:16.477Z,236.25
2023-09-16T10:55:16.523Z,258.75
2023-09-16T10:56:13.477Z,247.50
2023-09-16T10:57:13.454Z,236.25
2023-09-16T10:58:13.462Z,219.38
2023-09-16T10:59:13.411Z,208.12
2023-09-16T11:00:13.405Z,202.50
2023-09-16T11:01:13.523Z,196.88
2023-09-16T11:02:13.396Z,191.25
2023-09-16T11:03:13.410Z,185.62
2023-09-16T11:04:13.372Z,180.00
2023-09-16T11:05:13.320Z,180.00
2023-09-16T11:06:13.334Z,174.38
2023-09-16T11:07:13.320Z,174.38
2023-09-16T11:08:13.331Z,174.38
2023-09-16T11:09:13.271Z,174.38
2023-09-16T11:10:13.320Z,174.38
2023-09-16T11:11:13.243Z,174.38
2023-09-16T11:12:13.220Z,174.38
2023-09-16T11:13:13.311Z,174.38
2023-09-16T11:14:16.205Z,174.38
2023-09-16T11:15:16.188Z,174.38
2023-09-16T11:16:13.267Z,174.38
2023-09-16T11:17:13.182Z,174.38
2023-09-16T11:18:13.140Z,174.38
2023-09-16T11:19:13.231Z,174.38
2023-09-16T11:20:13.119Z,174.38
2023-09-16T11:21:13.104Z,174.38
2023-09-16T11:22:13.123Z,174.38
2023-09-16T11:23:13.074Z,168.75
2023-09-16T11:24:13.138Z,135.00
2023-09-16T11:25:13.075Z,123.75
2023-09-16T11:26:13.028Z,140.62
2023-09-16T11:27:13.020Z,163.12
2023-09-16T11:28:13.028Z,180.00
2023-09-16T11:29:13.007Z,180.00
2023-09-16T11:30:13.018Z,180.00
2023-09-16T11:31:13.027Z,174.38
2023-09-16T11:32:13.015Z,174.38
2023-09-16T11:33:12.970Z,174.38
2023-09-16T11:34:16.001Z,174.38
2023-09-16T11:35:15.962Z,174.38
2023-09-16T11:36:12.932Z,174.38
2023-09-16T11:37:12.907Z,174.38
2023-09-16T11:38:12.911Z,174.38
2023-09-16T11:39:12.870Z,174.38
2023-09-16T11:40:12.885Z,174.38
2023-09-16T11:41:12.868Z,174.38
2023-09-16T11:42:12.895Z,174.38
2023-09-16T11:43:12.856Z,174.38
2023-09-16T11:44:12.786Z,174.38
2023-09-16T11:45:12.848Z,174.38
2023-09-16T11:46:12.816Z,180.00
2023-09-16T11:47:12.759Z,174.38
2023-09-16T11:48:12.787Z,174.38
2023-09-16T11:49:12.772Z,174.38
2023-09-16T11:50:12.718Z,180.00
2023-09-16T11:51:12.709Z,174.38
2023-09-16T11:52:12.728Z,180.00
2023-09-16T11:53:12.700Z,174.38
2023-09-16T11:54:15.657Z,180.00
2023-09-16T11:55:15.738Z,180.00
2023-09-16T11:56:12.634Z,168.75
2023-09-16T11:57:12.626Z,163.12
2023-09-16T11:58:12.665Z,174.38
2023-09-16T11:59:12.603Z,174.38
2023-09-16T12:00:12.600Z,174.38
2023-09-16T12:01:12.634Z,174.38
2023-09-16T12:02:12.614Z,180.00
2023-09-16T12:03:12.650Z,174.38
2023-09-16T12:04:12.620Z,174.38
2023-09-16T12:05:12.537Z,174.38
2023-09-16T12:06:12.504Z,174.38
2023-09-16T12:07:12.610Z,174.38
2023-09-16T12:08:12.479Z,174.38
2023-09-16T12:09:12.465Z,174.38
2023-09-16T12:10:12.531Z,174.38
2023-09-16T12:11:12.460Z,174.38
2023-09-16T12:12:12.433Z,174.38
2023-09-16T12:13:12.424Z,174.38
2023-09-16T12:14:15.436Z,174.38
2023-09-16T12:15:15.480Z,174.38
2023-09-16T12:16:12.499Z,174.38
2023-09-16T12:17:12.397Z,174.38
2023-09-16T12:18:12.348Z,174.38
2023-09-16T12:19:12.451Z,174.38
2023-09-16T12:20:12.361Z,174.38
2023-09-16T12:21:12.325Z,174.38
2023-09-16T12:22:12.332Z,174.38
2023-09-16T12:23:12.288Z,174.38
2023-09-16T12:24:12.289Z,174.38
2023-09-16T12:25:12.340Z,174.38
2023-09-16T12:26:12.252Z,174.38
2023-09-16T12:27:12.224Z,174.38
2023-09-16T12:28:12.258Z,174.38
2023-09-16T12:29:12.196Z,174.38
2023-09-16T12:30:12.203Z,174.38
2023-09-16T12:31:12.674Z,174.38
2023-09-16T12:32:12.277Z,174.38
2023-09-16T12:33:12.150Z,174.38
2023-09-16T12:34:15.165Z,168.75
2023-09-16T12:35:15.165Z,174.38
2023-09-16T12:36:12.094Z,174.38
2023-09-16T12:37:12.128Z,174.38
2023-09-16T12:38:12.104Z,174.38
2023-09-16T12:39:12.146Z,174.38
2023-09-16T12:40:12.158Z,174.38
2023-09-16T12:41:12.055Z,174.38
2023-09-16T12:42:16.209Z,174.38
2023-09-16T12:43:12.108Z,174.38
2023-09-16T12:44:11.985Z,174.38
2023-09-16T12:45:12.010Z,174.38
2023-09-16T12:46:12.012Z,174.38
2023-09-16T12:47:12.024Z,174.38
2023-09-16T12:48:12.100Z,174.38
2023-09-16T12:49:12.055Z,180.00
2023-09-16T12:50:11.950Z,174.38
2023-09-16T12:51:11.886Z,174.38
2023-09-16T12:52:11.946Z,174.38